Time;durP1;ratioP1;P1;durP2;ratioP2;P2;SDS_P1;SDS_P2;PMS_P1;PMS_P2;Temp;Humidity;BMP_temperature;BMP_pressure;BME280_temperature;BME280_humidity;BME280_pressure;Samples;Min_cycle;Max_cycle;Signal;HPM_P1;HPM_P2
2021/11/22 00:01:44;;;;;;;7.15;1.90;;;;;;;11.41;56.60;101373.94;4222970;28;20047;-59
2021/11/22 00:03:46;;;;;;;5.72;2.30;;;;;;;11.41;56.69;101379.22;4224331;28;20073;-58
2021/11/22 00:05:48;;;;;;;6.60;2.30;;;;;;;11.40;56.86;101376.59;4224198;28;20040;-59
2021/11/22 00:07:51;;;;;;;7.38;2.10;;;;;;;11.33;56.63;101371.50;4224057;28;20044;-58
2021/11/22 00:09:53;;;;;;;;;;;;;;;11.40;56.47;101381.84;4224973;28;20384;-57
2021/11/22 00:11:55;;;;;;;6.45;2.10;;;;;;;11.38;56.61;101386.34;4223760;28;19977;-57
2021/11/22 00:13:57;;;;;;;5.57;2.10;;;;;;;11.40;56.78;101389.75;4224063;28;20044;-56
2021/11/22 00:15:59;;;;;;;5.32;1.95;;;;;;;11.39;56.62;101394.19;4223981;28;20089;-58
2021/11/22 00:18:01;;;;;;;6.88;2.42;;;;;;;11.39;56.50;101391.53;4223880;28;20044;-57
2021/11/22 00:20:06;;;;;;;5.93;2.22;;;;;;;11.40;56.67;101387.13;4223929;28;20552;-57
2021/11/22 00:22:08;;;;;;;6.10;2.20;;;;;;;11.40;56.69;101390.66;4223798;28;20036;-57
2021/11/22 00:24:10;;;;;;;6.85;1.98;;;;;;;11.38;56.57;101387.19;4223925;28;20062;-57
2021/11/22 00:26:13;;;;;;;6.65;2.00;;;;;;;11.39;56.71;101388.91;4223984;28;20165;-57
2021/11/22 00:28:15;;;;;;;8.43;2.20;;;;;;;11.40;56.41;101395.03;4223641;28;20052;-59
2021/11/22 00:30:18;;;;;;;5.90;2.00;;;;;;;11.32;56.62;101382.97;4223641;28;20157;-58
2021/11/22 00:32:20;;;;;;;7.40;2.38;;;;;;;11.37;56.58;101384.59;4223576;28;20044;-58
2021/11/22 00:34:22;;;;;;;5.35;2.08;;;;;;;11.37;56.52;101395.97;4223753;28;20040;-56
2021/11/22 00:36:24;;;;;;;6.28;2.45;;;;;;;11.38;56.50;101397.72;4223745;28;20296;-57
2021/11/22 00:38:26;;;;;;;5.32;2.10;;;;;;;11.37;56.73;101385.44;4223434;28;20064;-57
2021/11/22 00:40:28;;;;;;;5.10;2.00;;;;;;;11.38;56.51;101386.34;4223684;28;20048;-57
2021/11/22 00:42:31;;;;;;;6.40;2.25;;;;;;;11.38;56.66;101399.50;4223416;28;20388;-57
2021/11/22 00:44:33;;;;;;;7.97;2.60;;;;;;;11.38;56.45;101408.25;4223186;28;20324;-57
2021/11/22 00:46:35;;;;;;;6.47;2.40;;;;;;;11.37;56.66;101398.63;4222366;28;20225;-57
2021/11/22 00:48:38;;;;;;;;;;;;;;;11.36;56.38;101399.50;4221926;28;20040;-57
2021/11/22 00:50:40;;;;;;;7.22;2.47;;;;;;;11.35;56.61;101401.31;4223510;28;20545;-57
2021/11/22 00:52:42;;;;;;;7.15;2.80;;;;;;;11.35;56.60;101403.94;4223375;28;20351;-57
2021/11/22 00:54:44;;;;;;;8.30;2.33;;;;;;;11.31;56.39;101390.88;4222957;28;20066;-58
2021/11/22 00:56:46;;;;;;;9.38;2.70;;;;;;;11.35;56.45;101414.47;4223671;28;20044;-57
2021/11/22 00:58:48;;;;;;;8.07;2.92;;;;;;;11.35;56.60;101411.00;4222942;28;20040;-57
2021/11/22 01:00:50;;;;;;;;;;;;;;;11.34;56.33;101412.75;4223876;28;20074;-58
2021/11/22 01:02:52;;;;;;;8.13;2.20;;;;;;;11.33;56.55;101411.00;4222835;28;19915;-59
2021/11/22 01:04:54;;;;;;;7.80;2.40;;;;;;;11.33;56.37;101420.69;4221446;28;20047;-57
2021/11/22 01:06:57;;;;;;;7.15;2.58;;;;;;;11.30;56.40;101411.09;4222031;28;20044;-57
2021/11/22 01:08:59;;;;;;;6.72;2.40;;;;;;;11.31;56.50;101415.47;4223233;28;20339;-58
2021/11/22 01:11:01;;;;;;;6.72;2.20;;;;;;;11.32;56.30;101419.84;4223229;28;20048;-57
2021/11/22 01:13:03;;;;;;;6.70;2.42;;;;;;;11.31;56.29;101426.00;4223261;28;20048;-58
2021/11/22 01:15:10;;;;;;;7.88;2.55;;;;;;;11.30;56.28;101424.28;4221589;28;20244;-59
2021/11/22 01:17:15;;;;;;;7.72;2.33;;;;;;;11.29;56.27;101422.53;4223028;28;20048;-58
2021/11/22 01:19:18;;;;;;;8.13;2.78;;;;;;;11.30;56.49;101426.91;4221788;28;20228;-59
2021/11/22 01:21:20;;;;;;;6.82;2.30;;;;;;;11.30;56.42;101437.44;4222655;28;20081;-59
2021/11/22 01:23:22;;;;;;;6.25;2.58;;;;;;;11.30;56.22;101434.81;4222983;28;20242;-59
2021/11/22 01:25:24;;;;;;;;;;;;;;;11.29;56.54;101429.59;4222852;28;20040;-59
2021/11/22 01:27:26;;;;;;;6.55;2.25;;;;;;;11.27;56.46;101437.50;4223276;28;19923;-59
2021/11/22 01:29:28;;;;;;;6.90;2.40;;;;;;;11.27;56.22;101439.28;4222737;28;20056;-60
2021/11/22 01:31:31;;;;;;;9.50;2.60;;;;;;;11.25;56.33;101434.06;4222879;28;20044;-59
2021/11/22 01:33:33;;;;;;;7.93;2.20;;;;;;;11.28;56.44;101433.13;4222828;28;20048;-59
2021/11/22 01:35:35;;;;;;;;;;;;;;;11.27;56.24;101442.78;4222722;28;20044;-59
2021/11/22 01:37:37;;;;;;;7.97;2.53;;;;;;;11.26;56.26;101446.31;4222629;28;20143;-58
2021/11/22 01:39:39;;;;;;;8.23;2.60;;;;;;;11.21;56.36;101437.69;4222243;28;20089;-58
2021/11/22 01:41:41;;;;;;;9.18;2.60;;;;;;;11.23;56.22;101442.88;4222602;28;20040;-57
2021/11/22 01:43:43;;;;;;;7.72;2.42;;;;;;;11.25;56.45;101441.09;4222695;28;20040;-58
2021/11/22 01:45:49;;;;;;;6.88;2.65;;;;;;;11.26;56.46;101448.09;4221196;28;20044;-56
2021/11/22 01:47:52;;;;;;;7.97;2.67;;;;;;;11.26;56.16;101445.47;4222509;28;20105;-56
2021/11/22 01:49:54;;;;;;;7.20;2.50;;;;;;;11.25;56.40;101454.25;4222342;28;20051;-58
2021/11/22 01:51:56;;;;;;;6.30;2.53;;;;;;;11.23;56.05;101448.16;4222493;28;20044;-57
2021/11/22 01:53:59;;;;;;;7.68;2.50;;;;;;;11.24;56.06;101449.88;4221653;28;20040;-59
2021/11/22 01:56:01;;;;;;;8.15;2.65;;;;;;;11.23;56.04;101454.31;4222143;28;20304;-59
2021/11/22 01:58:03;;;;;;;;;;;;;;;11.24;56.31;101455.16;4222652;28;20244;-58
2021/11/22 02:00:10;;;;;;;7.70;2.63;;;;;;;11.22;56.06;101457.00;4222146;28;19915;-57
2021/11/22 02:02:13;;;;;;;7.22;2.13;;;;;;;11.22;56.27;101460.47;4211162;28;20040;-56
2021/11/22 02:04:16;;;;;;;8.80;2.60;;;;;;;11.22;56.26;101457.00;4221676;28;20048;-58
2021/11/22 02:06:18;;;;;;;8.23;2.60;;;;;;;11.22;56.35;101460.47;4221968;28;20316;-59
2021/11/22 02:08:20;;;;;;;;;;;;;;;11.21;56.12;101464.00;4222644;28;20078;-59
2021/11/22 02:10:23;;;;;;;;;;;;;;;11.20;56.27;101464.91;4221988;28;19920;-58
2021/11/22 02:12:25;;;;;;;6.13;2.42;;;;;;;11.21;56.03;101468.41;4221198;28;19916;-57
2021/11/22 02:14:27;;;;;;;8.00;2.53;;;;;;;11.19;56.21;101471.94;4221498;28;20382;-59
2021/11/22 02:16:30;;;;;;;9.50;2.90;;;;;;;11.15;56.18;101469.44;4221254;28;20324;-57
2021/11/22 02:18:32;;;;;;;7.07;2.38;;;;;;;11.17;56.16;101483.44;4222124;28;20044;-57
2021/11/22 02:20:34;;;;;;;;;;;;;;;11.17;56.14;101481.66;4222515;28;20044;-58
2021/11/22 02:22:36;;;;;;;7.40;2.50;;;;;;;11.17;56.33;101479.03;4220359;28;20162;-56
2021/11/22 02:24:39;;;;;;;6.75;2.60;;;;;;;11.17;56.22;101481.66;4221780;28;20063;-57
2021/11/22 02:26:41;;;;;;;6.80;2.58;;;;;;;11.17;56.32;101484.28;4221773;28;20101;-58
2021/11/22 02:28:43;;;;;;;8.45;2.63;;;;;;;11.16;56.26;101485.19;4221651;28;20044;-59
2021/11/22 02:30:46;;;;;;;;;;;;;;;11.16;56.04;101494.88;4222471;28;20089;-58
2021/11/22 02:32:48;;;;;;;6.47;2.20;;;;;;;11.15;56.17;101487.88;4221928;28;19962;-59
2021/11/22 02:34:50;;;;;;;;;;;;;;;11.13;56.09;101485.28;4222135;28;20328;-59
2021/11/22 02:36:52;;;;;;;7.60;2.60;;;;;;;11.13;56.40;101485.28;4220082;28;19916;-59
2021/11/22 02:38:54;;;;;;;;;;;;;;;11.13;56.11;101484.41;4222235;28;20067;-58
2021/11/22 02:40:57;;;;;;;8.52;2.25;;;;;;;11.12;55.97;101486.19;4220657;28;19939;-59
2021/11/22 02:42:59;;;;;;;10.00;2.47;;;;;;;11.12;55.97;101487.97;4220882;28;20044;-59
2021/11/22 02:45:03;;;;;;;8.27;2.63;;;;;;;11.11;56.11;101488.84;4221908;28;20066;-59
2021/11/22 02:47:06;;;;;;;8.35;2.35;;;;;;;11.12;56.15;101494.06;4221512;28;20035;-58
2021/11/22 02:49:08;;;;;;;8.63;2.85;;;;;;;11.12;56.06;101485.31;4221653;28;20052;-58
2021/11/22 02:51:10;;;;;;;7.07;2.47;;;;;;;11.11;55.99;101480.97;4221895;28;20044;-59
2021/11/22 02:53:13;;;;;;;;;;;;;;;11.10;55.92;101485.34;4221995;28;20050;-58
2021/11/22 02:55:17;;;;;;;9.05;2.55;;;;;;;11.09;55.95;101483.59;4219240;28;19916;-59
2021/11/22 02:57:19;;;;;;;8.07;2.33;;;;;;;11.07;55.92;101495.97;4212533;28;20355;-57
2021/11/22 02:59:21;;;;;;;8.43;2.50;;;;;;;11.08;55.99;101495.06;4221858;28;20040;-56
2021/11/22 03:01:23;;;;;;;10.80;2.95;;;;;;;11.08;56.14;101495.06;4221628;28;20082;-59
2021/11/22 03:03:28;;;;;;;8.25;2.58;;;;;;;11.04;55.96;101496.03;4221301;28;20355;-57
2021/11/22 03:05:30;;;;;;;8.88;2.65;;;;;;;11.05;56.03;101487.22;4221546;28;20044;-59
2021/11/22 03:07:32;;;;;;;6.57;2.58;;;;;;;11.06;55.82;101493.34;4221333;28;20044;-58
2021/11/22 03:09:35;;;;;;;7.20;2.40;;;;;;;11.07;55.97;101503.88;4221501;28;20044;-58
2021/11/22 03:11:37;;;;;;;7.15;2.30;;;;;;;11.06;55.98;101495.97;4221186;28;20064;-58
2021/11/22 03:13:42;;;;;;;7.35;2.40;;;;;;;11.06;55.95;101504.75;4221305;28;20266;-57
2021/11/22 03:15:44;;;;;;;9.20;2.83;;;;;;;11.05;55.89;101510.94;4219955;28;20052;-60
2021/11/22 03:17:46;;;;;;;;;;;;;;;11.05;55.97;101518.81;4218890;28;20044;-57
2021/11/22 03:19:48;;;;;;;7.43;2.55;;;;;;;11.04;55.97;101509.19;4221500;28;19923;-58
2021/11/22 03:21:51;;;;;;;9.65;2.60;;;;;;;11.03;55.83;101513.59;4221051;28;20044;-57
2021/11/22 03:23:53;;;;;;;6.70;2.53;;;;;;;11.01;55.76;101502.25;4221302;28;20235;-58
2021/11/22 03:25:56;;;;;;;;;;;;;;;11.03;55.79;101512.72;4220511;28;20040;-58
2021/11/22 03:27:58;;;;;;;6.82;2.22;;;;;;;11.02;55.96;101516.25;4223918;28;19916;-59
2021/11/22 03:30:00;;;;;;;;;;;;;;;11.00;55.71;101516.28;4225217;28;20089;-59
2021/11/22 03:32:02;;;;;;;8.32;2.63;;;;;;;11.00;55.84;101518.94;4224859;28;19916;-57
2021/11/22 03:34:07;;;;;;;9.65;3.08;;;;;;;11.00;55.90;101518.94;4224487;28;20044;-58
2021/11/22 03:36:09;;;;;;;8.98;2.60;;;;;;;10.99;55.63;101525.09;4224403;28;20059;-57
2021/11/22 03:38:13;;;;;;;6.78;2.50;;;;;;;11.00;55.69;101520.72;4224399;28;20048;-58
2021/11/22 03:40:16;;;;;;;7.57;2.28;;;;;;;10.99;55.76;101524.25;4224523;28;20036;-60
2021/11/22 03:42:21;;;;;;;6.75;2.50;;;;;;;10.95;55.90;101519.97;4224660;28;20043;-59
2021/11/22 03:44:24;;;;;;;9.30;2.42;;;;;;;10.99;55.70;101526.88;4223222;28;20036;-59
2021/11/22 03:46:26;;;;;;;8.88;2.67;;;;;;;10.98;55.80;101531.25;4224400;28;20054;-60
2021/11/22 03:48:30;;;;;;;;;;;;;;;10.98;55.82;101541.78;4223679;28;20492;-57
2021/11/22 03:50:33;;;;;;;8.25;2.40;;;;;;;10.93;55.62;101525.25;4224428;28;19916;-57
2021/11/22 03:52:35;;;;;;;8.98;2.53;;;;;;;10.97;55.80;101541.81;4223468;28;20256;-59
2021/11/22 03:54:38;;;;;;;7.30;2.72;;;;;;;10.97;55.89;101541.81;4223709;28;20040;-60
2021/11/22 03:56:40;;;;;;;8.95;2.42;;;;;;;10.97;55.86;101545.34;4224072;28;20044;-59
2021/11/22 03:58:42;;;;;;;8.48;2.88;;;;;;;10.94;55.75;101536.66;4223550;28;20240;-58
2021/11/22 04:00:44;;;;;;;9.20;2.70;;;;;;;10.96;55.56;101543.59;4224279;28;20504;-60
2021/11/22 04:02:46;;;;;;;;;;;;;;;10.96;55.93;101546.25;4224695;28;20044;-59
2021/11/22 04:04:49;;;;;;;9.05;2.75;;;;;;;10.96;55.83;101546.25;4224068;28;20161;-58
2021/11/22 04:06:52;;;;;;;7.50;2.60;;;;;;;10.94;55.78;101542.78;4223496;28;20040;-58
2021/11/22 04:08:54;;;;;;;11.05;3.05;;;;;;;10.95;55.76;101554.19;4224118;28;20389;-59
2021/11/22 04:10:56;;;;;;;;;;;;;;;10.95;55.67;101552.41;4224430;28;20044;-58
2021/11/22 04:12:58;;;;;;;8.55;2.75;;;;;;;10.94;55.87;101549.81;4221512;28;19970;-58
2021/11/22 04:15:01;;;;;;;9.80;2.63;;;;;;;10.94;55.58;101552.44;4223609;28;20040;-60
2021/11/22 04:17:03;;;;;;;7.57;2.60;;;;;;;10.93;55.71;101554.19;4223934;28;20047;-59
2021/11/22 04:19:06;;;;;;;8.80;2.50;;;;;;;10.93;55.57;101553.34;4223786;28;20052;-57
2021/11/22 04:21:08;;;;;;;;;;;;;;;10.93;55.54;101561.25;4222730;28;20052;-58
2021/11/22 04:23:10;;;;;;;8.02;2.72;;;;;;;10.92;55.52;101568.25;4206780;28;19916;-59
2021/11/22 04:25:13;;;;;;;7.88;2.30;;;;;;;10.92;55.67;101572.66;4213814;28;20307;-57
2021/11/22 04:27:15;;;;;;;;;;;;;;;10.91;55.75;101569.19;4224301;28;20330;-57
2021/11/22 04:29:17;;;;;;;8.20;3.13;;;;;;;10.90;55.69;101572.72;4223140;28;19938;-57
2021/11/22 04:31:19;;;;;;;;;;;;;;;10.90;55.64;101574.44;4224039;28;20041;-57
2021/11/22 04:33:21;;;;;;;8.70;2.60;;;;;;;10.89;55.59;101572.72;4223768;28;19920;-57
2021/11/22 04:35:24;;;;;;;8.18;2.50;;;;;;;10.85;55.55;101564.03;4220312;28;20397;-58
2021/11/22 04:37:28;;;;;;;7.90;2.97;;;;;;;10.87;55.71;101570.13;4223186;28;20056;-59
2021/11/22 04:39:30;;;;;;;7.70;2.63;;;;;;;10.86;55.76;101579.81;4221013;28;20097;-57
2021/11/22 04:41:32;;;;;;;7.63;2.13;;;;;;;10.83;55.62;101577.22;4223393;28;20044;-57
2021/11/22 04:43:34;;;;;;;7.30;2.33;;;;;;;10.89;55.80;101591.13;4223561;28;20044;-57
2021/11/22 04:45:36;;;;;;;7.30;2.80;;;;;;;10.89;55.60;101589.41;4223397;28;20344;-57
2021/11/22 04:47:38;;;;;;;;;;;;;;;10.88;55.52;101592.91;4221947;28;20040;-57
2021/11/22 04:49:41;;;;;;;8.63;2.40;;;;;;;10.86;55.55;101594.72;4223472;28;19920;-57
2021/11/22 04:51:43;;;;;;;;;;;;;;;10.85;55.46;101596.50;4223713;28;20048;-59
2021/11/22 04:53:45;;;;;;;8.88;2.63;;;;;;;10.85;55.68;101600.88;4222695;28;20302;-57
2021/11/22 04:55:47;;;;;;;8.55;2.72;;;;;;;10.85;55.68;101607.03;4223103;28;20058;-58
2021/11/22 04:57:50;;;;;;;6.55;2.47;;;;;;;10.83;55.55;101605.31;4221960;28;20240;-60
2021/11/22 04:59:52;;;;;;;6.95;2.47;;;;;;;10.84;55.64;101610.53;4223426;28;20040;-57
2021/11/22 05:01:54;;;;;;;5.72;2.30;;;;;;;10.84;55.66;101607.91;4223173;28;20040;-59
2021/11/22 05:03:57;;;;;;;8.88;2.53;;;;;;;10.78;55.49;101594.00;4223125;28;20059;-58
2021/11/22 05:05:59;;;;;;;6.68;2.78;;;;;;;10.82;55.77;101609.69;4222467;28;20040;-58
2021/11/22 05:08:05;;;;;;;7.75;2.63;;;;;;;10.84;55.74;101614.97;4221375;28;20048;-60
2021/11/22 05:10:08;;;;;;;7.78;2.78;;;;;;;10.84;55.52;101617.59;4221056;28;20065;-59
2021/11/22 05:12:10;;;;;;;8.18;2.65;;;;;;;10.83;55.72;101623.75;4221670;28;20040;-59
2021/11/22 05:14:12;;;;;;;7.72;2.50;;;;;;;10.83;55.68;101619.34;4221525;28;20316;-60
2021/11/22 05:16:14;;;;;;;8.45;2.90;;;;;;;10.81;55.63;101631.66;4219773;28;20039;-57
2021/11/22 05:18:17;;;;;;;7.32;2.95;;;;;;;10.78;55.56;101623.84;4222791;28;20051;-59
2021/11/22 05:20:18;;;;;;;;;;;;;;;10.82;55.64;101645.69;4222910;28;20044;-58
2021/11/22 05:22:25;;;;;;;7.43;2.47;;;;;;;10.80;55.69;101643.09;4222757;28;20002;-59
2021/11/22 05:24:28;;;;;;;9.40;2.83;;;;;;;10.81;55.65;101646.59;4222837;28;20074;-60
2021/11/22 05:26:31;;;;;;;8.77;2.72;;;;;;;10.77;55.54;101640.53;4218894;28;20048;-59
2021/11/22 05:28:33;;;;;;;6.80;2.72;;;;;;;10.81;55.66;101655.34;4220890;28;20044;-58
2021/11/22 05:30:37;;;;;;;6.95;2.47;;;;;;;10.83;55.42;101655.31;4222852;28;20044;-58
2021/11/22 05:32:39;;;;;;;8.40;2.90;;;;;;;10.81;55.52;101647.44;4221035;28;20036;-59
2021/11/22 05:34:43;;;;;;;9.60;2.63;;;;;;;10.81;55.78;101657.09;4222678;28;20044;-59
2021/11/22 05:36:46;;;;;;;6.55;2.45;;;;;;;10.75;55.75;101646.72;4220792;28;20113;-59
2021/11/22 05:38:48;;;;;;;9.13;2.92;;;;;;;10.75;55.63;101651.97;4220290;28;20077;-57
2021/11/22 05:40:50;;;;;;;6.75;2.63;;;;;;;10.80;55.44;101661.53;4220908;28;20065;-59
2021/11/22 05:42:52;;;;;;;8.57;2.97;;;;;;;10.80;55.50;101668.53;4220758;28;20040;-59
2021/11/22 05:44:54;;;;;;;6.78;2.72;;;;;;;10.76;55.36;101658.97;4222791;28;20059;-57
2021/11/22 05:46:56;;;;;;;7.80;2.78;;;;;;;10.76;55.43;101658.97;4222230;28;20056;-57
2021/11/22 05:48:58;;;;;;;9.00;3.00;;;;;;;10.74;55.46;101659.03;4222301;28;20043;-58
2021/11/22 05:51:02;;;;;;;9.73;2.85;;;;;;;10.79;55.46;101667.69;4222361;28;20062;-58
2021/11/22 05:53:08;;;;;;;8.68;2.60;;;;;;;10.78;55.46;101670.31;4219799;28;20043;-58
2021/11/22 05:55:17;;;;;;;7.97;3.15;;;;;;;10.71;55.44;101659.94;4220672;28;20040;-58
2021/11/22 05:57:19;;;;;;;7.05;2.95;;;;;;;10.71;55.51;101669.59;4221027;28;20052;-57
2021/11/22 05:59:21;;;;;;;;;;;;;;;10.76;55.52;101678.25;4221825;28;20052;-59
2021/11/22 06:01:23;;;;;;;8.93;2.92;;;;;;;10.75;55.40;101687.03;4222316;28;19920;-60
2021/11/22 06:03:28;;;;;;;8.15;2.67;;;;;;;10.75;55.56;101689.66;4219978;28;20040;-60
2021/11/22 06:05:30;;;;;;;8.90;3.00;;;;;;;10.69;55.61;101684.53;4222216;28;20044;-59
2021/11/22 06:07:32;;;;;;;11.30;3.13;;;;;;;10.67;55.42;101689.00;4220561;28;20350;-59
2021/11/22 06:09:35;;;;;;;;;;;;;;;10.73;55.34;101699.38;4222470;28;20044;-59
2021/11/22 06:11:37;;;;;;;11.63;3.63;;;;;;;10.72;55.49;101702.91;4219940;28;19916;-59
2021/11/22 06:13:39;;;;;;;8.73;3.15;;;;;;;10.70;55.51;101707.31;4220263;28;20097;-58
2021/11/22 06:15:41;;;;;;;;;;;;;;;10.69;55.44;101705.59;4219441;28;20232;-58
2021/11/22 06:17:43;;;;;;;7.40;3.13;;;;;;;10.65;55.37;101712.66;4222136;28;19931;-58
2021/11/22 06:19:45;;;;;;;6.57;3.15;;;;;;;10.68;55.46;101723.16;4221458;28;20043;-59
2021/11/22 06:21:47;;;;;;;9.32;3.35;;;;;;;10.67;55.40;101720.56;4221079;28;20040;-57
2021/11/22 06:23:49;;;;;;;11.50;3.88;;;;;;;10.65;55.24;101723.19;4220896;28;20082;-60
2021/11/22 06:25:51;;;;;;;;;;;;;;;10.65;55.37;101736.34;4218773;28;20072;-60
2021/11/22 06:27:54;;;;;;;10.60;3.37;;;;;;;10.64;55.37;101742.50;4219265;28;20115;-58
2021/11/22 06:29:56;;;;;;;9.40;3.58;;;;;;;10.64;55.11;101752.16;4216902;28;20294;-58
2021/11/22 06:31:58;;;;;;;;;;;;;;;10.64;55.17;101733.75;4222382;28;20142;-59
2021/11/22 06:34:00;;;;;;;12.70;3.77;;;;;;;10.60;55.33;101737.34;4219891;28;19920;-58
2021/11/22 06:36:03;;;;;;;8.95;3.60;;;;;;;10.61;55.34;101746.97;4217635;28;20051;-58
2021/11/22 06:38:05;;;;;;;10.40;3.65;;;;;;;10.61;55.29;101757.47;4221512;28;20048;-58
2021/11/22 06:40:08;;;;;;;11.55;4.22;;;;;;;10.59;55.23;101767.19;4217835;28;20040;-58
2021/11/22 06:42:10;;;;;;;11.05;4.03;;;;;;;10.59;55.40;101764.56;4221290;28;20051;-57
2021/11/22 06:44:13;;;;;;;10.45;4.05;;;;;;;10.57;55.19;101772.47;4220990;28;20048;-58
2021/11/22 06:46:15;;;;;;;10.90;4.55;;;;;;;10.56;55.24;101786.53;4220148;28;20044;-59
2021/11/22 06:48:18;;;;;;;9.63;4.10;;;;;;;10.48;55.09;101770.88;4220643;28;20043;-59
2021/11/22 06:50:20;;;;;;;8.85;4.03;;;;;;;10.54;55.39;101775.16;4219745;28;20099;-59
2021/11/22 06:52:22;;;;;;;;;;;;;;;10.54;55.15;101786.53;4221166;28;20224;-58
2021/11/22 06:54:24;;;;;;;11.00;4.35;;;;;;;10.51;55.22;101785.72;4219736;28;19935;-59
2021/11/22 06:56:26;;;;;;;9.50;4.30;;;;;;;10.34;55.18;101755.31;4221304;28;20044;-60
2021/11/22 06:58:29;;;;;;;9.25;4.25;;;;;;;10.51;55.08;101785.72;4220408;28;20059;-60
2021/11/22 07:00:31;;;;;;;;;;;;;;;10.50;55.09;101786.63;4221724;28;20044;-58
2021/11/22 07:02:33;;;;;;;9.10;4.40;;;;;;;10.46;55.31;101793.72;4220731;28;19919;-57
2021/11/22 07:04:35;;;;;;;7.93;3.92;;;;;;;10.49;55.21;101790.16;4221560;28;20220;-58
2021/11/22 07:06:37;;;;;;;8.50;3.95;;;;;;;10.48;55.36;101797.16;4220897;28;20039;-59
2021/11/22 07:08:39;;;;;;;;;;;;;;;10.47;55.13;101797.19;4220292;28;20043;-59
2021/11/22 07:10:41;;;;;;;9.65;4.45;;;;;;;10.41;55.17;101794.69;4221050;28;19916;-58
2021/11/22 07:12:43;;;;;;;9.63;4.82;;;;;;;10.47;55.24;101808.56;4221276;28;20043;-58
2021/11/22 07:14:45;;;;;;;11.35;4.47;;;;;;;10.47;55.32;101813.84;4221532;28;20044;-58
2021/11/22 07:16:49;;;;;;;10.43;4.47;;;;;;;10.47;55.11;101802.47;4221176;28;20040;-59
2021/11/22 07:18:52;;;;;;;7.55;3.63;;;;;;;10.47;55.24;101810.34;4218592;28;20048;-57
2021/11/22 07:20:54;;;;;;;8.05;4.38;;;;;;;10.47;55.16;101816.47;4220667;28;20220;-59
2021/11/22 07:22:56;;;;;;;;;;;;;;;10.47;55.10;101820.88;4221435;28;20047;-59
2021/11/22 07:24:58;;;;;;;7.85;3.80;;;;;;;10.47;55.25;101818.25;4217930;28;19920;-59
2021/11/22 07:27:00;;;;;;;13.25;4.32;;;;;;;10.46;55.38;101835.78;4221130;28;20089;-57
2021/11/22 07:29:04;;;;;;;7.88;3.85;;;;;;;10.46;55.20;101835.78;4219893;28;20373;-58
2021/11/22 07:31:07;;;;;;;8.05;3.72;;;;;;;10.46;55.40;101835.78;4220286;28;20039;-58
2021/11/22 07:33:10;;;;;;;7.38;3.58;;;;;;;10.43;55.33;101827.09;4220720;28;20040;-59
2021/11/22 07:35:14;;;;;;;7.85;3.60;;;;;;;10.46;55.20;101840.16;4221207;28;20112;-58
2021/11/22 07:37:16;;;;;;;7.57;4.07;;;;;;;10.46;55.18;101841.06;4220224;28;20533;-59
2021/11/22 07:39:18;;;;;;;9.02;4.10;;;;;;;10.46;55.49;101842.81;4221215;28;20051;-59
2021/11/22 07:41:20;;;;;;;9.13;3.83;;;;;;;10.46;55.32;101850.69;4218723;28;20194;-58
2021/11/22 07:43:22;;;;;;;8.75;3.70;;;;;;;10.45;55.32;101859.47;4220141;28;20270;-60
2021/11/22 07:45:26;;;;;;;9.80;4.05;;;;;;;10.45;55.40;101856.84;4221301;28;20044;-58
2021/11/22 07:47:28;;;;;;;9.32;3.72;;;;;;;10.45;55.46;101864.72;4219306;28;20089;-57
2021/11/22 07:49:32;;;;;;;8.05;3.97;;;;;;;10.45;55.25;101863.00;4221069;28;20259;-58
2021/11/22 07:51:34;;;;;;;8.10;3.90;;;;;;;10.39;55.29;101857.84;4220342;28;20247;-59
2021/11/22 07:53:38;;;;;;;7.95;3.78;;;;;;;10.41;55.29;101863.91;4217750;28;20070;-59
2021/11/22 07:55:41;;;;;;;8.25;3.78;;;;;;;10.45;55.38;101870.00;4220543;28;20109;-59
2021/11/22 07:57:43;;;;;;;10.75;4.05;;;;;;;10.44;55.20;101874.41;4220274;28;20044;-59
2021/11/22 07:59:45;;;;;;;11.85;4.50;;;;;;;10.46;55.53;101884.88;4220169;28;20044;-60
2021/11/22 08:01:48;;;;;;;9.55;3.80;;;;;;;10.45;55.47;101889.28;4221279;28;20051;-61
2021/11/22 08:03:51;;;;;;;9.25;3.50;;;;;;;10.47;55.33;101889.25;4221056;28;20081;-62
2021/11/22 08:05:56;;;;;;;10.45;4.03;;;;;;;10.30;55.34;101868.47;4220333;28;20105;-61
2021/11/22 08:07:59;;;;;;;9.70;3.83;;;;;;;10.45;55.34;101891.03;4220807;28;20050;-59
2021/11/22 08:10:04;;;;;;;;;;;;;;;10.49;55.28;101895.38;4221483;28;20044;-60
2021/11/22 08:12:26;;;;;;;7.60;3.60;;;;;;;10.47;55.24;101895.38;4220643;28;19924;-60
2021/11/22 08:14:29;;;;;;;7.57;3.38;;;;;;;10.48;55.28;101902.38;4217810;28;20504;-61
2021/11/22 08:16:37;;;;;;;9.25;4.07;;;;;;;10.49;55.21;101898.00;4221682;28;20048;-60
2021/11/22 08:18:40;;;;;;;8.60;3.55;;;;;;;10.48;55.16;101893.63;4217149;28;20245;-60
2021/11/22 08:20:42;;;;;;;9.20;3.33;;;;;;;10.46;55.10;101895.41;4219951;28;20048;-61
2021/11/22 08:22:45;;;;;;;8.80;3.72;;;;;;;10.49;54.94;101906.75;4211950;28;20096;-60
2021/11/22 08:24:52;;;;;;;8.68;4.13;;;;;;;10.46;55.31;101901.56;4220927;28;20093;-60
2021/11/22 08:26:54;;;;;;;8.55;3.70;;;;;;;10.41;55.22;101886.72;4219623;28;20036;-61
2021/11/22 08:28:57;;;;;;;11.00;3.80;;;;;;;10.48;55.11;101907.63;4218520;28;20107;-62
2021/11/22 08:31:01;;;;;;;8.70;4.30;;;;;;;10.47;55.07;101903.25;4221788;28;20052;-61
2021/11/22 08:33:04;;;;;;;8.02;3.70;;;;;;;10.46;55.37;101908.56;4221898;28;20043;-61
2021/11/22 08:35:06;;;;;;;;;;;;;;;10.47;55.14;101911.16;4223955;28;20244;-62
2021/11/22 08:37:08;;;;;;;7.50;3.47;;;;;;;10.48;55.10;101909.41;4223519;28;19916;-60
2021/11/22 08:39:10;;;;;;;8.43;3.60;;;;;;;10.32;55.46;101891.19;4223715;28;20317;-60
2021/11/22 08:41:13;;;;;;;8.68;3.78;;;;;;;10.49;55.66;101916.41;4221612;28;20093;-60
2021/11/22 08:43:27;;;;;;;10.05;3.85;;;;;;;10.49;55.58;101911.16;4222145;28;20048;-60
2021/11/22 08:45:35;;;;;;;10.15;4.20;;;;;;;10.42;55.49;101913.00;4221865;28;20462;-60
2021/11/22 08:47:42;;;;;;;8.90;3.90;;;;;;;10.48;55.71;101931.31;4222012;28;20047;-60
2021/11/22 08:49:50;;;;;;;9.38;3.83;;;;;;;10.47;55.72;101931.34;4222829;28;20102;-61
2021/11/22 08:51:55;;;;;;;7.78;3.42;;;;;;;10.49;55.78;101932.19;4222962;28;20040;-60
2021/11/22 08:53:58;;;;;;;9.05;3.70;;;;;;;10.48;55.98;101925.19;4221896;28;20061;-61
2021/11/22 08:56:02;;;;;;;10.65;3.67;;;;;;;10.50;55.72;101931.31;4223114;28;20074;-61
2021/11/22 08:58:05;;;;;;;8.07;3.70;;;;;;;10.49;55.60;101937.44;4223157;28;20378;-61
2021/11/22 09:00:16;;;;;;;9.32;3.95;;;;;;;10.49;55.63;101943.56;4222903;28;20044;-59
2021/11/22 09:02:21;;;;;;;7.03;3.70;;;;;;;10.43;55.51;101930.53;4223073;28;20051;-60
2021/11/22 09:04:25;;;;;;;9.00;3.50;;;;;;;10.48;55.57;101951.50;4222999;28;20035;-60
2021/11/22 09:06:34;;;;;;;7.78;3.40;;;;;;;10.53;55.65;101954.91;4222995;28;20344;-60
2021/11/22 09:08:36;;;;;;;9.90;3.53;;;;;;;10.54;55.58;101957.50;4223168;28;20040;-60
2021/11/22 09:10:38;;;;;;;;;;;;;;;10.55;55.48;101950.50;4223288;28;20044;-60
2021/11/22 09:12:40;;;;;;;6.95;3.35;;;;;;;10.39;55.45;101934.94;4222083;28;19916;-60
2021/11/22 09:14:44;;;;;;;8.77;3.25;;;;;;;10.58;55.43;101957.47;4222112;28;20047;-62
2021/11/22 09:16:47;;;;;;;7.15;3.35;;;;;;;10.59;55.47;101961.84;4220328;28;20044;-62
2021/11/22 09:18:49;;;;;;;;;;;;;;;10.61;55.58;101960.94;4223159;28;20052;-61
2021/11/22 09:20:54;;;;;;;9.40;3.40;;;;;;;10.60;55.46;101972.34;4219756;28;19999;-60
2021/11/22 09:22:57;;;;;;;;;;;;;;;10.62;55.28;101974.94;4222153;28;20051;-60
2021/11/22 09:25:00;;;;;;;8.70;3.25;;;;;;;10.63;55.21;101966.16;4222129;28;19916;-61
2021/11/22 09:27:03;;;;;;;8.93;3.20;;;;;;;10.64;55.20;101968.75;4222724;28;20039;-62
2021/11/22 09:29:06;;;;;;;6.60;3.28;;;;;;;10.61;55.19;101960.94;4222818;28;20055;-63
2021/11/22 09:31:08;;;;;;;10.10;3.45;;;;;;;10.63;55.08;101985.47;4222641;28;20044;-60
2021/11/22 09:33:11;;;;;;;7.13;3.78;;;;;;;10.57;55.18;101969.78;4222552;28;20105;-62
2021/11/22 09:35:14;;;;;;;6.78;3.15;;;;;;;10.62;55.26;101970.56;4222529;28;20342;-65
2021/11/22 09:37:16;;;;;;;7.22;3.15;;;;;;;10.67;55.24;101984.50;4221897;28;20059;-60
2021/11/22 09:39:19;;;;;;;;;;;;;;;10.67;54.85;101981.03;4220206;28;20044;-61